createdAt,value
2023-05-06T00:00:22.352Z,6.76
2023-05-06T00:10:43.812Z,6.77
2023-05-06T00:21:05.601Z,6.68
2023-05-06T00:31:26.747Z,6.40
2023-05-06T00:41:48.185Z,6.18
2023-05-06T00:52:10.417Z,6.17
2023-05-06T01:02:45.788Z,6.16
2023-05-06T01:13:11.589Z,6.11
2023-05-06T01:23:52.827Z,6.07
2023-05-06T01:34:24.398Z,6.03
2023-05-06T01:44:46.114Z,5.99
2023-05-06T01:55:08.701Z,5.99
2023-05-06T02:05:30.845Z,5.79
2023-05-06T02:15:54.831Z,5.53
2023-05-06T02:26:17.757Z,5.37
2023-05-06T02:36:39.458Z,5.36
2023-05-06T02:47:00.883Z,5.52
2023-05-06T02:57:22.638Z,5.58
2023-05-06T03:07:44.293Z,5.56
2023-05-06T03:18:05.953Z,5.41
2023-05-06T03:28:27.433Z,5.53
2023-05-06T03:38:49.616Z,5.75
2023-05-06T03:49:11.237Z,5.70
2023-05-06T03:59:33.378Z,5.60
2023-05-06T04:09:57.763Z,5.98
2023-05-06T04:20:20.353Z,6.30
2023-05-06T04:30:44.020Z,6.52
2023-05-06T04:41:06.873Z,6.69
2023-05-06T04:51:29.710Z,6.86
2023-05-06T05:01:51.907Z,7.14
2023-05-06T05:12:13.638Z,7.24
2023-05-06T05:22:39.531Z,7.81
2023-05-06T05:33:01.075Z,8.18
2023-05-06T05:43:25.907Z,8.75
2023-05-06T05:53:48.787Z,8.55
2023-05-06T06:04:11.611Z,9.33
2023-05-06T06:14:33.361Z,9.64
2023-05-06T06:24:56.195Z,9.46
2023-05-06T06:35:19.865Z,9.78
2023-05-06T06:45:41.159Z,9.85
2023-05-06T06:56:02.677Z,9.94
2023-05-06T07:06:24.464Z,10.22
2023-05-06T07:16:47.687Z,10.10
2023-05-06T07:27:10.725Z,10.78
2023-05-06T07:37:32.421Z,10.48
2023-05-06T07:47:54.168Z,11.17
2023-05-06T07:58:16.216Z,10.94
2023-05-06T08:08:37.913Z,11.35
2023-05-06T08:18:59.893Z,11.05
2023-05-06T08:29:21.635Z,11.63
2023-05-06T08:39:42.949Z,11.73
2023-05-06T08:50:04.652Z,11.67
2023-05-06T09:00:26.128Z,11.73
2023-05-06T09:10:48.205Z,11.66
2023-05-06T09:21:09.802Z,11.46
2023-05-06T09:31:31.819Z,12.03
2023-05-06T09:41:53.858Z,12.26
2023-05-06T09:52:16.012Z,12.36
2023-05-06T10:02:38.834Z,12.43
2023-05-06T10:13:04.642Z,12.60
2023-05-06T10:23:44.510Z,13.21
2023-05-06T10:34:08.089Z,12.71
2023-05-06T10:44:57.680Z,13.50
2023-05-06T10:55:37.727Z,13.17
2023-05-06T11:06:02.412Z,13.58
2023-05-06T11:16:49.901Z,13.51
2023-05-06T11:27:13.743Z,13.11
2023-05-06T11:37:36.220Z,14.30
2023-05-06T11:47:57.707Z,13.61
2023-05-06T11:58:21.258Z,14.10
2023-05-06T12:08:42.608Z,14.30
2023-05-06T12:19:04.425Z,14.23
2023-05-06T12:29:26.513Z,15.95
2023-05-06T12:39:47.946Z,15.47
2023-05-06T12:50:09.724Z,15.74
2023-05-06T13:00:31.196Z,15.06
2023-05-06T13:10:53.074Z,17.14
2023-05-06T13:21:14.742Z,15.55
2023-05-06T13:31:36.560Z,17.24
2023-05-06T13:41:58.193Z,16.86
2023-05-06T13:52:19.688Z,17.37
2023-05-06T14:02:42.555Z,16.54
2023-05-06T14:12:45.642Z,20.14
2023-05-06T14:23:07.193Z,16.85
2023-05-06T14:33:29.170Z,18.58
2023-05-06T14:43:50.917Z,18.68
2023-05-06T14:54:12.252Z,18.69
2023-05-06T15:04:33.597Z,15.73
2023-05-06T15:14:55.464Z,13.35
2023-05-06T15:25:30.345Z,12.83
2023-05-06T15:35:55.672Z,12.40
2023-05-06T15:46:17.401Z,11.92
2023-05-06T15:56:41.400Z,11.48
2023-05-06T16:07:03.311Z,11.46
2023-05-06T16:17:25.197Z,11.37
2023-05-06T16:27:47.045Z,11.13
2023-05-06T16:38:09.342Z,10.86
2023-05-06T16:48:30.706Z,10.54
2023-05-06T16:58:52.540Z,10.14
2023-05-06T17:09:13.967Z,9.77
2023-05-06T17:19:35.545Z,9.50
2023-05-06T17:29:56.984Z,9.25
2023-05-06T17:40:19.112Z,9.28
2023-05-06T17:50:41.346Z,9.08
2023-05-06T18:01:02.947Z,9.04
2023-05-06T18:11:24.979Z,8.77
2023-05-06T18:21:47.163Z,8.60
2023-05-06T18:32:09.014Z,8.37
2023-05-06T18:42:35.613Z,8.33
2023-05-06T18:52:57.560Z,8.37
2023-05-06T19:03:20.069Z,8.43
2023-05-06T19:13:43.882Z,8.41
2023-05-06T19:24:06.443Z,8.46
2023-05-06T19:34:28.598Z,8.34
2023-05-06T19:44:50.429Z,8.33
2023-05-06T19:55:12.741Z,8.31
2023-05-06T20:05:34.526Z,8.18
2023-05-06T20:15:57.587Z,8.02
2023-05-06T20:26:19.817Z,7.84
2023-05-06T20:36:42.395Z,7.72
2023-05-06T20:47:05.610Z,7.63
2023-05-06T20:57:28.432Z,7.53
2023-05-06T21:07:49.780Z,7.43
2023-05-06T21:18:11.489Z,7.34
2023-05-06T21:28:33.068Z,7.24
2023-05-06T21:39:06.806Z,7.22
2023-05-06T21:49:28.573Z,7.23
2023-05-06T21:59:49.840Z,7.29
2023-05-06T22:10:11.781Z,7.24
2023-05-06T22:20:33.087Z,7.21
2023-05-06T22:30:54.262Z,7.43
2023-05-06T22:41:17.088Z,7.43
2023-05-06T22:51:38.784Z,7.51
2023-05-06T23:02:00.305Z,7.58
2023-05-06T23:12:21.786Z,7.53
2023-05-06T23:22:43.288Z,7.52
2023-05-06T23:33:05.067Z,7.55
2023-05-06T23:43:26.892Z,7.52
2023-05-06T23:53:48.514Z,7.51
